createdAt,value
2018-03-18T00:00:07.620Z,8.20
2018-03-18T00:02:37.508Z,7.40
2018-03-18T00:05:05.966Z,12.05
2018-03-18T00:07:34.403Z,10.85
2018-03-18T00:10:03.257Z,9.90
2018-03-18T00:12:31.888Z,11.55
2018-03-18T00:15:00.585Z,6.57
2018-03-18T00:17:30.026Z,12.60
2018-03-18T00:19:58.324Z,8.05
2018-03-18T00:22:26.992Z,10.23
2018-03-18T00:24:55.616Z,11.35
2018-03-18T00:27:24.318Z,8.13
2018-03-18T00:29:53.706Z,10.77
2018-03-18T00:32:22.402Z,10.35
2018-03-18T00:34:51.020Z,10.55
2018-03-18T00:37:19.646Z,10.43
2018-03-18T00:39:48.303Z,6.03
2018-03-18T00:42:17.140Z,10.50
2018-03-18T00:44:45.811Z,6.35
2018-03-18T00:47:14.441Z,7.85
2018-03-18T00:49:42.750Z,6.35
2018-03-18T00:52:11.376Z,11.07
2018-03-18T00:54:40.776Z,8.32
2018-03-18T00:57:09.439Z,8.13
2018-03-18T00:59:38.124Z,5.78
2018-03-18T01:02:06.776Z,10.25
2018-03-18T01:04:35.408Z,11.65
2018-03-18T01:07:04.063Z,10.32
2018-03-18T01:09:32.685Z,9.10
2018-03-18T01:12:02.122Z,10.80
2018-03-18T01:14:30.742Z,7.90
2018-03-18T01:16:59.737Z,8.25
2018-03-18T01:19:28.376Z,9.27
2018-03-18T01:21:57.752Z,8.05
2018-03-18T01:24:27.178Z,12.07
2018-03-18T01:26:55.809Z,10.77
2018-03-18T01:29:24.457Z,11.73
2018-03-18T01:31:53.097Z,11.98
2018-03-18T01:34:21.759Z,10.52
2018-03-18T01:36:51.154Z,12.77
2018-03-18T01:39:19.795Z,12.10
2018-03-18T01:41:48.477Z,10.38
2018-03-18T01:44:17.865Z,9.57
2018-03-18T01:46:46.972Z,11.43
2018-03-18T01:49:16.351Z,11.23
2018-03-18T01:51:44.988Z,6.35
2018-03-18T01:54:13.632Z,6.12
2018-03-18T01:56:43.035Z,6.70
2018-03-18T01:59:12.616Z,8.20
2018-03-18T02:01:41.253Z,7.30
2018-03-18T02:04:09.878Z,11.10
2018-03-18T02:06:38.625Z,11.93
2018-03-18T02:09:07.251Z,6.95
2018-03-18T02:11:35.888Z,7.22
2018-03-18T02:14:04.545Z,9.57
2018-03-18T02:16:33.946Z,12.90
2018-03-18T02:19:02.624Z,8.38
2018-03-18T02:21:31.404Z,8.98
2018-03-18T02:24:00.048Z,7.75
2018-03-18T02:26:28.688Z,10.00
2018-03-18T02:28:58.199Z,9.65
2018-03-18T02:31:27.595Z,7.32
2018-03-18T02:33:56.425Z,10.13
2018-03-18T02:36:25.083Z,11.23
2018-03-18T02:38:54.494Z,8.98
2018-03-18T02:41:24.100Z,8.90
2018-03-18T02:43:52.737Z,10.80
2018-03-18T02:46:21.465Z,11.60
2018-03-18T02:48:50.676Z,10.65
2018-03-18T02:51:19.337Z,15.85
2018-03-18T02:53:48.725Z,9.07
2018-03-18T02:56:17.362Z,11.65
2018-03-18T02:58:46.005Z,10.63
2018-03-18T03:01:15.422Z,12.10
2018-03-18T03:03:44.833Z,8.98
2018-03-18T03:06:13.462Z,8.18
2018-03-18T03:08:42.118Z,10.60
2018-03-18T03:11:10.737Z,7.70
2018-03-18T03:13:39.376Z,8.27
2018-03-18T03:16:07.988Z,6.62
2018-03-18T03:18:36.655Z,11.25
2018-03-18T03:21:05.281Z,7.57
2018-03-18T03:23:33.732Z,10.27
2018-03-18T03:26:02.384Z,10.82
2018-03-18T03:28:31.025Z,11.20
2018-03-18T03:30:59.669Z,7.25
2018-03-18T03:33:28.288Z,5.72
2018-03-18T03:35:56.748Z,12.88
2018-03-18T03:38:25.379Z,7.90
2018-03-18T03:40:54.798Z,11.10
2018-03-18T03:43:24.532Z,7.28
2018-03-18T03:45:53.160Z,8.52
2018-03-18T03:48:21.805Z,10.73
2018-03-18T03:50:51.571Z,12.10
2018-03-18T03:53:21.379Z,12.98
2018-03-18T03:55:51.013Z,6.60
2018-03-18T03:58:20.669Z,13.45
2018-03-18T04:00:50.321Z,9.27
2018-03-18T04:03:20.294Z,12.37
2018-03-18T04:05:49.930Z,13.23
2018-03-18T04:08:19.353Z,12.37
2018-03-18T04:10:49.515Z,8.88
2018-03-18T04:13:18.240Z,9.32
2018-03-18T04:15:47.654Z,9.77
2018-03-18T04:18:17.425Z,11.88
2018-03-18T04:20:47.194Z,9.80
2018-03-18T04:23:15.645Z,12.43
2018-03-18T04:25:45.061Z,11.40
2018-03-18T04:28:13.693Z,12.65
2018-03-18T04:30:42.328Z,7.15
2018-03-18T04:33:10.972Z,13.38
2018-03-18T04:35:39.620Z,10.20
2018-03-18T04:38:08.256Z,11.23
2018-03-18T04:40:36.882Z,10.82
2018-03-18T04:43:05.521Z,11.15
2018-03-18T04:45:34.141Z,9.00
2018-03-18T04:48:02.781Z,8.55
2018-03-18T04:50:31.426Z,7.70
2018-03-18T04:53:00.061Z,8.50
2018-03-18T04:55:28.680Z,10.05
2018-03-18T04:57:57.356Z,10.15
2018-03-18T05:00:26.000Z,8.80
2018-03-18T05:02:54.464Z,11.45
2018-03-18T05:05:22.925Z,11.98
2018-03-18T05:07:51.557Z,10.73
2018-03-18T05:10:20.205Z,6.82
2018-03-18T05:12:49.024Z,7.78
2018-03-18T05:15:17.857Z,11.70
2018-03-18T05:17:46.472Z,9.10
2018-03-18T05:20:15.116Z,7.45
2018-03-18T05:22:43.739Z,8.30
2018-03-18T05:25:12.376Z,10.23
2018-03-18T05:27:41.789Z,11.85
2018-03-18T05:30:10.410Z,8.45
2018-03-18T05:32:38.859Z,7.72
2018-03-18T05:35:07.494Z,11.20
2018-03-18T05:37:35.952Z,9.48
2018-03-18T05:40:04.582Z,10.98
2018-03-18T05:42:33.988Z,8.65
2018-03-18T05:45:02.605Z,9.02
2018-03-18T05:47:31.261Z,7.75
2018-03-18T05:50:00.664Z,9.90
2018-03-18T05:52:29.496Z,5.60
2018-03-18T05:54:59.642Z,10.80
2018-03-18T05:57:28.281Z,11.10
2018-03-18T05:59:56.927Z,10.90
2018-03-18T06:02:26.335Z,12.52
2018-03-18T06:04:55.736Z,9.48
2018-03-18T06:07:25.137Z,12.32
2018-03-18T06:09:54.363Z,8.05
2018-03-18T06:12:22.977Z,13.35
2018-03-18T06:14:51.609Z,9.85
2018-03-18T06:17:21.017Z,12.55
2018-03-18T06:19:50.396Z,4.47
2018-03-18T06:22:19.036Z,11.07
2018-03-18T06:24:47.724Z,9.57
2018-03-18T06:27:16.488Z,13.85
2018-03-18T06:29:45.145Z,7.87
2018-03-18T06:32:14.564Z,9.27
2018-03-18T06:34:44.201Z,7.07
2018-03-18T06:37:13.848Z,11.00
2018-03-18T06:39:43.505Z,11.38
2018-03-18T06:42:13.161Z,12.07
2018-03-18T06:44:42.846Z,11.85
2018-03-18T06:47:12.492Z,12.35
2018-03-18T06:49:42.151Z,8.48
2018-03-18T06:52:11.946Z,10.32
2018-03-18T06:54:41.608Z,14.80
2018-03-18T06:57:11.280Z,11.90
2018-03-18T06:59:40.937Z,12.02
2018-03-18T07:02:10.599Z,15.73
2018-03-18T07:04:40.307Z,13.98
2018-03-18T07:07:09.956Z,11.43
2018-03-18T07:09:39.622Z,14.15
2018-03-18T07:12:09.276Z,18.50
2018-03-18T07:14:38.979Z,11.73
2018-03-18T07:17:08.645Z,10.35
2018-03-18T07:19:38.286Z,12.32
2018-03-18T07:22:07.970Z,11.27
2018-03-18T07:24:37.629Z,7.82
2018-03-18T07:27:07.291Z,10.80
2018-03-18T07:29:36.954Z,11.98
2018-03-18T07:32:06.705Z,10.95
2018-03-18T07:34:36.422Z,11.10
2018-03-18T07:39:42.388Z,12.82
2018-03-18T07:42:12.085Z,15.20
2018-03-18T07:44:41.738Z,9.82
2018-03-18T07:47:11.390Z,10.80
2018-03-18T07:49:41.037Z,9.20
2018-03-18T07:52:10.708Z,12.80
2018-03-18T07:54:40.369Z,11.10
2018-03-18T07:57:10.023Z,15.27
2018-03-18T07:59:39.693Z,12.15
2018-03-18T08:02:09.352Z,7.65
2018-03-18T08:04:39.056Z,9.50
2018-03-18T08:07:08.712Z,9.00
2018-03-18T08:09:38.379Z,9.50
2018-03-18T08:12:08.042Z,12.40
2018-03-18T08:14:37.712Z,11.18
2018-03-18T08:17:07.377Z,11.77
2018-03-18T08:19:36.005Z,8.45
2018-03-18T08:22:04.652Z,11.63
2018-03-18T08:24:33.287Z,10.30
2018-03-18T08:27:01.993Z,11.77
2018-03-18T08:29:31.408Z,12.07
2018-03-18T08:32:00.798Z,9.32
2018-03-18T08:34:30.210Z,12.10
2018-03-18T08:36:59.421Z,9.85
2018-03-18T08:39:28.253Z,9.75
2018-03-18T08:41:58.004Z,7.20
2018-03-18T08:44:27.428Z,10.80
2018-03-18T08:46:56.060Z,9.38
2018-03-18T08:49:24.686Z,8.25
2018-03-18T08:51:53.330Z,11.20
2018-03-18T08:54:21.972Z,8.30
2018-03-18T08:56:50.665Z,10.90
2018-03-18T08:59:19.291Z,12.73
2018-03-18T09:01:47.921Z,8.73
2018-03-18T09:04:16.590Z,9.75
2018-03-18T09:06:45.257Z,9.57
2018-03-18T09:09:14.668Z,7.85
2018-03-18T09:11:44.103Z,10.35
2018-03-18T09:14:12.775Z,6.60
2018-03-18T09:16:41.437Z,12.18
2018-03-18T09:19:10.849Z,11.80
2018-03-18T09:21:39.539Z,10.82
2018-03-18T09:24:07.973Z,5.20
2018-03-18T09:26:36.622Z,6.70
2018-03-18T09:29:05.296Z,11.32
2018-03-18T09:31:38.652Z,12.37
2018-03-18T09:34:08.816Z,10.00
2018-03-18T09:36:37.258Z,8.68
2018-03-18T09:39:06.333Z,11.40
2018-03-18T09:41:34.979Z,7.45
2018-03-18T09:44:03.373Z,15.63
2018-03-18T09:46:33.027Z,10.48
2018-03-18T09:49:01.649Z,5.93
2018-03-18T09:51:30.285Z,10.25
2018-03-18T09:53:59.105Z,11.12
2018-03-18T09:56:27.741Z,11.55
2018-03-18T09:58:56.418Z,10.40
2018-03-18T10:14:30.986Z,10.50
2018-03-18T10:16:59.454Z,12.05
2018-03-18T10:19:28.899Z,6.47
2018-03-18T10:21:57.626Z,10.38
2018-03-18T10:24:27.029Z,10.07
2018-03-18T10:26:55.657Z,7.50
2018-03-18T10:29:24.363Z,11.60
2018-03-18T10:31:53.771Z,13.05
2018-03-18T10:34:22.221Z,9.15
2018-03-18T10:36:50.998Z,8.55
2018-03-18T10:39:19.656Z,8.65
2018-03-18T10:41:48.096Z,9.13
2018-03-18T10:44:16.756Z,13.75
2018-03-18T10:46:45.408Z,7.45
2018-03-18T10:49:14.836Z,9.82
2018-03-18T10:51:43.545Z,7.05
2018-03-18T10:54:12.190Z,8.15
2018-03-18T10:56:41.624Z,10.30
2018-03-18T10:59:10.275Z,10.90
2018-03-18T11:01:45.243Z,12.70
2018-03-18T11:04:17.827Z,9.63
2018-03-18T11:06:46.844Z,9.50
2018-03-18T11:09:15.485Z,11.02
2018-03-18T11:11:44.130Z,7.20
2018-03-18T11:14:12.764Z,14.60
2018-03-18T11:16:41.399Z,8.15
2018-03-18T11:19:10.112Z,15.57
2018-03-18T11:21:38.605Z,9.40
2018-03-18T11:24:06.762Z,9.13
2018-03-18T11:26:35.467Z,10.35
2018-03-18T11:29:04.110Z,9.20
2018-03-18T11:31:32.761Z,8.90
2018-03-18T11:34:01.397Z,8.82
2018-03-18T11:36:30.900Z,9.73
2018-03-18T11:39:00.018Z,10.18
2018-03-18T11:41:28.713Z,13.52
2018-03-18T11:43:57.347Z,10.57
2018-03-18T11:46:26.018Z,5.10
2018-03-18T11:48:54.663Z,7.75
2018-03-18T11:51:23.303Z,7.35
2018-03-18T11:53:53.996Z,8.75
2018-03-18T11:56:23.449Z,5.32
2018-03-18T11:58:52.870Z,10.48
2018-03-18T12:01:23.652Z,9.88
2018-03-18T12:03:52.291Z,9.57
2018-03-18T12:06:20.968Z,10.35
2018-03-18T12:08:59.834Z,10.25
2018-03-18T12:11:28.150Z,4.43
2018-03-18T12:13:57.554Z,9.20
2018-03-18T12:16:27.047Z,9.70
2018-03-18T12:18:55.485Z,13.07
2018-03-18T12:21:24.127Z,6.60
2018-03-18T12:23:53.595Z,9.18
2018-03-18T12:26:22.257Z,8.05
2018-03-18T12:28:50.879Z,8.38
2018-03-18T12:31:19.556Z,8.20
2018-03-18T12:33:47.884Z,8.07
2018-03-18T12:36:17.832Z,7.70
2018-03-18T12:38:46.491Z,6.72
2018-03-18T12:41:15.332Z,6.93
2018-03-18T12:43:44.740Z,7.80
2018-03-18T12:46:13.384Z,7.80
2018-03-18T12:48:42.008Z,6.62
2018-03-18T12:51:10.653Z,7.97
2018-03-18T12:53:39.274Z,6.28
2018-03-18T12:56:07.905Z,6.70
2018-03-18T12:58:37.125Z,7.93
2018-03-18T13:01:05.742Z,3.37
2018-03-18T13:03:34.385Z,5.32
2018-03-18T13:06:03.934Z,6.15
2018-03-18T13:08:32.565Z,7.78
2018-03-18T13:11:01.226Z,8.65
2018-03-18T13:13:30.673Z,7.70
2018-03-18T13:15:59.299Z,8.70
2018-03-18T13:18:28.725Z,8.43
2018-03-18T13:20:57.350Z,8.95
2018-03-18T13:23:26.561Z,8.53
2018-03-18T13:25:55.201Z,6.53
2018-03-18T13:28:23.828Z,6.82
2018-03-18T13:30:53.269Z,6.78
2018-03-18T13:33:22.933Z,7.93
2018-03-18T13:36:06.767Z,7.90
2018-03-18T13:38:36.205Z,7.82
2018-03-18T13:41:04.586Z,5.97
2018-03-18T13:43:33.413Z,6.60
2018-03-18T13:46:02.031Z,6.90
2018-03-18T13:48:30.680Z,5.05
2018-03-18T13:50:59.306Z,8.45
2018-03-18T13:53:27.938Z,7.80
2018-03-18T13:55:56.577Z,6.35
2018-03-18T13:58:25.278Z,6.28
2018-03-18T14:00:54.684Z,6.70
2018-03-18T14:03:23.785Z,5.28
2018-03-18T14:05:52.885Z,6.35
2018-03-18T14:08:22.287Z,5.12
2018-03-18T14:10:51.680Z,5.37
2018-03-18T14:13:21.281Z,6.20
2018-03-18T14:15:50.664Z,4.85
2018-03-18T14:18:19.039Z,6.07
2018-03-18T14:20:47.758Z,5.22
2018-03-18T14:23:16.396Z,6.55
2018-03-18T14:25:45.568Z,6.77
2018-03-18T14:28:14.198Z,6.03
2018-03-18T14:30:42.672Z,5.83
2018-03-18T14:33:12.105Z,5.72
2018-03-18T14:35:41.500Z,4.22
2018-03-18T14:38:11.316Z,5.18
2018-03-18T14:40:40.826Z,3.47
2018-03-18T14:43:09.256Z,3.37
2018-03-18T14:45:38.442Z,6.20
2018-03-18T14:48:07.185Z,5.07
2018-03-18T14:50:36.629Z,5.95
2018-03-18T14:53:05.306Z,6.43
2018-03-18T14:55:33.672Z,5.67
2018-03-18T14:58:02.399Z,6.97
2018-03-18T15:00:31.834Z,6.97
2018-03-18T15:03:01.264Z,8.02
2018-03-18T15:05:29.624Z,4.97
2018-03-18T15:07:59.024Z,4.60
2018-03-18T15:10:27.376Z,5.17
2018-03-18T15:12:56.036Z,6.15
2018-03-18T15:15:24.677Z,7.82
2018-03-18T15:17:53.348Z,6.10
2018-03-18T15:20:22.876Z,4.30
2018-03-18T15:22:51.539Z,3.25
2018-03-18T15:25:20.933Z,7.78
2018-03-18T15:27:50.325Z,6.68
2018-03-18T15:30:18.964Z,6.62
2018-03-18T15:32:47.327Z,4.70
2018-03-18T15:35:15.934Z,4.93
2018-03-18T15:37:44.313Z,6.90
2018-03-18T15:40:13.461Z,6.47
2018-03-18T15:42:42.850Z,8.02
2018-03-18T15:45:11.711Z,6.97
2018-03-18T15:47:41.105Z,7.68
2018-03-18T15:50:09.716Z,5.90
2018-03-18T15:52:38.352Z,6.57
2018-03-18T15:55:06.973Z,7.20
2018-03-18T15:57:36.133Z,6.90
2018-03-18T16:00:03.869Z,6.13
2018-03-18T16:02:33.369Z,5.95
2018-03-18T16:05:02.604Z,4.93
2018-03-18T16:07:31.226Z,5.30
2018-03-18T16:09:59.934Z,8.00
2018-03-18T16:12:28.568Z,6.60
2018-03-18T16:14:56.927Z,7.23
2018-03-18T16:17:25.301Z,8.13
2018-03-18T16:19:53.945Z,4.93
2018-03-18T16:22:23.380Z,5.80
2018-03-18T16:24:52.018Z,5.78
2018-03-18T16:27:21.139Z,4.03
2018-03-18T16:30:00.656Z,8.20
2018-03-18T16:32:28.963Z,6.62
2018-03-18T16:34:58.437Z,7.18
2018-03-18T16:37:27.091Z,4.85
2018-03-18T16:39:55.568Z,7.10
2018-03-18T16:42:24.282Z,3.47
2018-03-18T16:44:52.930Z,6.25
2018-03-18T16:47:21.618Z,6.18
2018-03-18T16:49:50.482Z,6.75
2018-03-18T16:52:19.881Z,2.97
2018-03-18T16:54:48.710Z,6.80
2018-03-18T16:57:17.398Z,5.30
2018-03-18T16:59:47.128Z,5.47
2018-03-18T17:02:15.962Z,5.65
2018-03-18T17:04:44.693Z,3.72
2018-03-18T17:07:13.374Z,4.35
2018-03-18T17:09:42.014Z,5.90
2018-03-18T17:12:10.656Z,4.20
2018-03-18T17:14:39.301Z,7.15
2018-03-18T17:17:07.942Z,5.75
2018-03-18T17:19:36.582Z,6.53
2018-03-18T17:22:05.333Z,6.32
2018-03-18T17:24:34.726Z,2.50
2018-03-18T17:27:04.126Z,6.30
2018-03-18T17:29:32.771Z,3.03
2018-03-18T17:32:02.212Z,6.22
2018-03-18T17:34:31.268Z,5.72
2018-03-18T17:36:59.991Z,4.75
2018-03-18T17:39:28.790Z,5.40
2018-03-18T17:41:57.416Z,5.18
2018-03-18T17:44:37.288Z,4.43
2018-03-18T17:47:17.649Z,1.95
2018-03-18T17:49:57.547Z,5.93
2018-03-18T17:52:37.332Z,3.58
2018-03-18T17:55:12.049Z,4.32
2018-03-18T17:57:40.693Z,4.53
2018-03-18T18:00:10.080Z,3.90
2018-03-18T18:02:38.547Z,6.03
2018-03-18T18:05:08.201Z,3.58
2018-03-18T18:07:36.817Z,5.65
2018-03-18T18:10:04.857Z,6.00
2018-03-18T18:12:33.689Z,6.50
2018-03-18T18:15:08.588Z,4.47
2018-03-18T18:17:37.226Z,5.03
2018-03-18T18:20:06.742Z,5.62
2018-03-18T18:22:35.385Z,4.45
2018-03-18T18:25:03.738Z,5.87
2018-03-18T18:27:32.648Z,3.90
2018-03-18T18:30:01.280Z,4.62
2018-03-18T18:32:30.681Z,4.90
2018-03-18T18:34:59.909Z,6.45
2018-03-18T18:37:28.663Z,3.28
2018-03-18T18:39:58.087Z,5.22
2018-03-18T18:42:27.162Z,4.30
2018-03-18T18:44:56.354Z,4.20
2018-03-18T18:47:25.762Z,5.35
2018-03-18T18:49:54.963Z,2.95
2018-03-18T18:52:23.673Z,4.07
2018-03-18T18:54:52.389Z,4.03
2018-03-18T18:57:21.004Z,5.45
2018-03-18T18:59:50.416Z,4.07
2018-03-18T19:02:19.806Z,5.03
2018-03-18T19:04:49.314Z,4.10
2018-03-18T19:07:18.900Z,6.10
2018-03-18T19:09:47.949Z,4.45
2018-03-18T19:12:16.628Z,5.20
2018-03-18T19:14:46.277Z,3.00
2018-03-18T19:17:15.267Z,5.97
2018-03-18T19:19:45.047Z,3.87
2018-03-18T19:22:14.855Z,4.87
2018-03-18T19:24:44.586Z,3.67
2018-03-18T19:27:13.205Z,4.20
2018-03-18T19:29:42.690Z,5.37
2018-03-18T19:32:11.406Z,5.03
2018-03-18T19:34:43.469Z,6.37
2018-03-18T19:37:12.900Z,3.90
2018-03-18T19:39:42.772Z,3.62
2018-03-18T19:42:12.523Z,3.50
2018-03-18T19:44:41.149Z,5.40
2018-03-18T19:47:10.828Z,4.10
2018-03-18T19:49:39.490Z,2.87
2018-03-18T19:52:07.857Z,4.55
2018-03-18T19:54:38.155Z,5.10
2018-03-18T19:57:06.777Z,4.95
2018-03-18T19:59:35.410Z,4.60
2018-03-18T20:02:04.021Z,2.97
2018-03-18T20:04:32.689Z,3.22
2018-03-18T20:07:01.386Z,2.33
2018-03-18T20:09:31.108Z,3.92
2018-03-18T20:11:59.745Z,3.30
2018-03-18T20:14:28.368Z,5.93
2018-03-18T20:16:57.135Z,4.97
2018-03-18T20:19:25.796Z,3.97
2018-03-18T20:21:54.477Z,4.07
2018-03-18T20:24:23.131Z,5.10
2018-03-18T20:26:51.778Z,4.12
2018-03-18T20:29:20.519Z,5.22
2018-03-18T20:31:50.764Z,2.90
2018-03-18T20:34:19.460Z,3.65
2018-03-18T20:36:48.100Z,4.22
2018-03-18T20:39:16.748Z,2.25
2018-03-18T20:41:46.146Z,4.53
2018-03-18T20:44:14.784Z,3.67
2018-03-18T20:46:43.521Z,3.55
2018-03-18T20:49:12.137Z,3.10
2018-03-18T20:51:40.777Z,4.07
2018-03-18T20:54:09.447Z,3.78
2018-03-18T20:56:38.090Z,4.62
2018-03-18T20:59:06.754Z,3.70
2018-03-18T21:01:35.382Z,2.35
2018-03-18T21:04:03.700Z,3.12
2018-03-18T21:06:32.356Z,3.05
2018-03-18T21:09:00.987Z,3.87
2018-03-18T21:11:29.652Z,3.17
2018-03-18T21:13:58.329Z,3.78
2018-03-18T21:16:26.940Z,3.78
2018-03-18T21:18:55.591Z,3.62
2018-03-18T21:21:24.220Z,2.15
2018-03-18T21:23:53.676Z,3.72
2018-03-18T21:26:22.300Z,2.33
2018-03-18T21:28:51.668Z,3.42
2018-03-18T21:31:20.369Z,2.83
2018-03-18T21:33:49.016Z,4.72
2018-03-18T21:36:17.636Z,4.12
2018-03-18T21:38:46.313Z,3.97
2018-03-18T21:41:15.716Z,3.40
2018-03-18T21:43:44.344Z,3.53
2018-03-18T21:46:12.981Z,6.07
2018-03-18T21:48:41.642Z,2.70
2018-03-18T21:51:10.288Z,3.37
2018-03-18T21:53:39.866Z,3.65
2018-03-18T21:56:08.440Z,2.40
2018-03-18T21:58:38.460Z,1.52
2018-03-18T22:01:07.088Z,3.97
2018-03-18T22:03:35.718Z,2.08
2018-03-18T22:06:04.357Z,3.75
2018-03-18T22:08:32.987Z,3.92
2018-03-18T22:11:01.633Z,4.10
2018-03-18T22:13:30.264Z,5.55
2018-03-18T22:15:58.890Z,4.70
2018-03-18T22:18:28.292Z,3.03
2018-03-18T22:20:57.665Z,3.90
2018-03-18T22:23:26.302Z,2.55
2018-03-18T22:25:54.915Z,4.35
2018-03-18T22:28:23.568Z,2.60
2018-03-18T22:30:52.190Z,4.10
2018-03-18T22:33:20.914Z,3.95
2018-03-18T22:35:50.392Z,2.85
2018-03-18T22:38:19.087Z,3.50
2018-03-18T22:40:48.497Z,1.80
2018-03-18T22:43:17.873Z,3.60
2018-03-18T22:45:46.491Z,4.25
2018-03-18T22:48:15.105Z,3.72
2018-03-18T22:50:43.763Z,6.03
2018-03-18T22:53:12.381Z,3.87
2018-03-18T22:55:41.787Z,3.90
2018-03-18T22:58:10.395Z,3.28
2018-03-18T23:03:30.259Z,3.35
2018-03-18T23:05:59.089Z,2.67
2018-03-18T23:08:27.708Z,4.50
2018-03-18T23:10:56.482Z,4.07
2018-03-18T23:13:25.321Z,4.60
2018-03-18T23:15:53.928Z,3.25
2018-03-18T23:18:22.564Z,3.65
2018-03-18T23:20:51.196Z,4.35
2018-03-18T23:23:20.169Z,4.45
2018-03-18T23:25:48.806Z,5.55
2018-03-18T23:28:17.576Z,4.12
2018-03-18T23:30:46.978Z,4.75
2018-03-18T23:33:16.421Z,3.25
2018-03-18T23:35:45.115Z,4.35
2018-03-18T23:38:13.535Z,4.35
2018-03-18T23:40:42.014Z,2.47
2018-03-18T23:43:10.623Z,4.40
2018-03-18T23:45:40.015Z,2.90
2018-03-18T23:48:09.388Z,3.87
2018-03-18T23:50:37.819Z,4.93
2018-03-18T23:53:06.593Z,2.67
2018-03-18T23:55:35.980Z,4.12
2018-03-18T23:58:05.364Z,3.80
